sensor_id;sensor_type;location;lat;lon;timestamp;P1;durP1;ratioP1;P2;durP2;ratioP2
71172;SDS011;58875;51.996;4.504;2022-11-24T00:00:00;8.94;;;6.42;;
71172;SDS011;58875;51.996;4.504;2022-11-24T00:02:27;9.35;;;6.68;;
71172;SDS011;58875;51.996;4.504;2022-11-24T00:04:52;9.40;;;6.74;;
71172;SDS011;58875;51.996;4.504;2022-11-24T00:07:18;10.26;;;7.31;;
71172;SDS011;58875;51.996;4.504;2022-11-24T00:09:43;10.46;;;7.39;;
71172;SDS011;58875;51.996;4.504;2022-11-24T00:12:09;10.38;;;7.35;;
71172;SDS011;58875;51.996;4.504;2022-11-24T00:14:34;10.99;;;7.86;;
71172;SDS011;58875;51.996;4.504;2022-11-24T00:17:00;9.97;;;7.11;;
71172;SDS011;58875;51.996;4.504;2022-11-24T00:19:25;9.22;;;6.65;;
71172;SDS011;58875;51.996;4.504;2022-11-24T00:21:51;8.30;;;6.23;;
71172;SDS011;58875;51.996;4.504;2022-11-24T00:24:16;8.27;;;6.22;;
71172;SDS011;58875;51.996;4.504;2022-11-24T00:26:42;8.78;;;6.54;;
71172;SDS011;58875;51.996;4.504;2022-11-24T00:29:08;8.48;;;6.34;;
71172;SDS011;58875;51.996;4.504;2022-11-24T00:31:36;8.09;;;6.05;;
71172;SDS011;58875;51.996;4.504;2022-11-24T00:34:05;7.91;;;6.04;;
71172;SDS011;58875;51.996;4.504;2022-11-24T00:36:34;8.04;;;6.15;;
71172;SDS011;58875;51.996;4.504;2022-11-24T00:39:01;8.51;;;6.32;;
71172;SDS011;58875;51.996;4.504;2022-11-24T00:41:29;7.45;;;5.69;;
71172;SDS011;58875;51.996;4.504;2022-11-24T00:43:56;8.15;;;6.03;;
71172;SDS011;58875;51.996;4.504;2022-11-24T00:46:23;9.10;;;6.68;;
71172;SDS011;58875;51.996;4.504;2022-11-24T00:48:49;8.14;;;5.98;;
71172;SDS011;58875;51.996;4.504;2022-11-24T00:51:16;8.53;;;6.23;;
71172;SDS011;58875;51.996;4.504;2022-11-24T00:53:44;8.25;;;6.07;;
71172;SDS011;58875;51.996;4.504;2022-11-24T00:56:10;7.80;;;5.82;;
71172;SDS011;58875;51.996;4.504;2022-11-24T00:58:37;8.36;;;6.03;;
71172;SDS011;58875;51.996;4.504;2022-11-24T01:01:04;8.70;;;6.34;;
71172;SDS011;58875;51.996;4.504;2022-11-24T01:03:32;8.01;;;5.86;;
71172;SDS011;58875;51.996;4.504;2022-11-24T01:06:18;7.00;;;5.27;;
71172;SDS011;58875;51.996;4.504;2022-11-24T01:08:45;6.86;;;5.17;;
71172;SDS011;58875;51.996;4.504;2022-11-24T01:13:50;6.81;;;5.08;;
71172;SDS011;58875;51.996;4.504;2022-11-24T01:18:49;7.01;;;5.17;;
71172;SDS011;58875;51.996;4.504;2022-11-24T01:21:15;7.19;;;5.26;;
71172;SDS011;58875;51.996;4.504;2022-11-24T01:23:41;7.03;;;5.07;;
71172;SDS011;58875;51.996;4.504;2022-11-24T01:26:07;6.36;;;4.62;;
71172;SDS011;58875;51.996;4.504;2022-11-24T01:28:34;7.08;;;5.10;;
71172;SDS011;58875;51.996;4.504;2022-11-24T01:31:01;7.41;;;5.27;;
71172;SDS011;58875;51.996;4.504;2022-11-24T01:33:28;8.07;;;5.63;;
71172;SDS011;58875;51.996;4.504;2022-11-24T01:35:55;7.83;;;5.57;;
71172;SDS011;58875;51.996;4.504;2022-11-24T01:38:21;8.23;;;5.78;;
71172;SDS011;58875;51.996;4.504;2022-11-24T01:40:47;8.44;;;5.83;;
71172;SDS011;58875;51.996;4.504;2022-11-24T01:43:17;8.74;;;6.06;;
71172;SDS011;58875;51.996;4.504;2022-11-24T01:45:44;7.82;;;5.53;;
71172;SDS011;58875;51.996;4.504;2022-11-24T01:48:31;7.66;;;5.43;;
71172;SDS011;58875;51.996;4.504;2022-11-24T01:51:12;7.63;;;5.48;;
71172;SDS011;58875;51.996;4.504;2022-11-24T01:53:58;6.54;;;4.84;;
71172;SDS011;58875;51.996;4.504;2022-11-24T01:56:28;6.50;;;4.81;;
71172;SDS011;58875;51.996;4.504;2022-11-24T01:58:58;7.67;;;5.54;;
71172;SDS011;58875;51.996;4.504;2022-11-24T02:01:27;7.54;;;5.46;;
71172;SDS011;58875;51.996;4.504;2022-11-24T02:03:53;7.17;;;5.15;;
71172;SDS011;58875;51.996;4.504;2022-11-24T02:06:22;7.43;;;5.33;;
71172;SDS011;58875;51.996;4.504;2022-11-24T02:08:55;6.94;;;5.10;;
71172;SDS011;58875;51.996;4.504;2022-11-24T02:11:23;6.59;;;4.86;;
71172;SDS011;58875;51.996;4.504;2022-11-24T02:13:53;6.78;;;4.98;;
71172;SDS011;58875;51.996;4.504;2022-11-24T02:16:20;6.03;;;4.49;;
71172;SDS011;58875;51.996;4.504;2022-11-24T02:18:46;6.23;;;4.61;;
71172;SDS011;58875;51.996;4.504;2022-11-24T02:21:12;5.58;;;4.18;;
71172;SDS011;58875;51.996;4.504;2022-11-24T02:29:07;5.55;;;4.11;;
71172;SDS011;58875;51.996;4.504;2022-11-24T02:31:35;5.14;;;3.80;;
71172;SDS011;58875;51.996;4.504;2022-11-24T02:34:01;5.28;;;3.83;;
71172;SDS011;58875;51.996;4.504;2022-11-24T02:36:26;4.60;;;3.32;;
71172;SDS011;58875;51.996;4.504;2022-11-24T02:38:53;4.85;;;3.45;;
71172;SDS011;58875;51.996;4.504;2022-11-24T02:41:19;4.50;;;3.17;;
71172;SDS011;58875;51.996;4.504;2022-11-24T02:43:55;3.96;;;2.83;;
71172;SDS011;58875;51.996;4.504;2022-11-24T02:46:24;3.39;;;2.45;;
71172;SDS011;58875;51.996;4.504;2022-11-24T02:48:49;3.27;;;2.35;;
71172;SDS011;58875;51.996;4.504;2022-11-24T02:51:15;3.22;;;2.32;;
71172;SDS011;58875;51.996;4.504;2022-11-24T02:53:41;3.11;;;2.21;;
71172;SDS011;58875;51.996;4.504;2022-11-24T02:56:07;2.75;;;1.94;;
71172;SDS011;58875;51.996;4.504;2022-11-24T02:58:32;2.30;;;1.62;;
71172;SDS011;58875;51.996;4.504;2022-11-24T03:00:58;2.07;;;1.47;;
71172;SDS011;58875;51.996;4.504;2022-11-24T03:03:25;1.72;;;1.23;;
71172;SDS011;58875;51.996;4.504;2022-11-24T03:05:51;1.20;;;0.85;;
71172;SDS011;58875;51.996;4.504;2022-11-24T03:08:17;1.29;;;0.92;;
71172;SDS011;58875;51.996;4.504;2022-11-24T03:10:42;1.51;;;1.09;;
71172;SDS011;58875;51.996;4.504;2022-11-24T03:13:08;1.89;;;1.38;;
71172;SDS011;58875;51.996;4.504;2022-11-24T03:15:34;1.85;;;1.33;;
71172;SDS011;58875;51.996;4.504;2022-11-24T03:18:00;3.09;;;2.16;;
71172;SDS011;58875;51.996;4.504;2022-11-24T03:20:26;3.74;;;2.58;;
71172;SDS011;58875;51.996;4.504;2022-11-24T03:22:52;4.26;;;2.92;;
71172;SDS011;58875;51.996;4.504;2022-11-24T03:25:18;4.55;;;3.09;;
71172;SDS011;58875;51.996;4.504;2022-11-24T03:27:44;4.73;;;3.25;;
71172;SDS011;58875;51.996;4.504;2022-11-24T03:30:10;5.26;;;3.66;;
71172;SDS011;58875;51.996;4.504;2022-11-24T03:32:37;5.20;;;3.71;;
71172;SDS011;58875;51.996;4.504;2022-11-24T03:35:03;5.23;;;3.85;;
71172;SDS011;58875;51.996;4.504;2022-11-24T03:37:29;5.79;;;4.24;;
71172;SDS011;58875;51.996;4.504;2022-11-24T03:39:55;5.51;;;4.07;;
71172;SDS011;58875;51.996;4.504;2022-11-24T03:42:21;5.47;;;4.28;;
71172;SDS011;58875;51.996;4.504;2022-11-24T03:44:47;5.31;;;4.25;;
71172;SDS011;58875;51.996;4.504;2022-11-24T03:47:12;5.56;;;4.40;;
71172;SDS011;58875;51.996;4.504;2022-11-24T03:49:38;5.96;;;4.55;;
71172;SDS011;58875;51.996;4.504;2022-11-24T03:52:05;6.32;;;4.80;;
71172;SDS011;58875;51.996;4.504;2022-11-24T03:54:31;5.60;;;4.49;;
71172;SDS011;58875;51.996;4.504;2022-11-24T03:56:57;5.74;;;4.72;;
71172;SDS011;58875;51.996;4.504;2022-11-24T03:59:22;5.62;;;4.60;;
71172;SDS011;58875;51.996;4.504;2022-11-24T04:01:48;5.62;;;4.62;;
71172;SDS011;58875;51.996;4.504;2022-11-24T04:04:13;5.72;;;4.71;;
71172;SDS011;58875;51.996;4.504;2022-11-24T04:06:39;5.50;;;4.62;;
71172;SDS011;58875;51.996;4.504;2022-11-24T04:09:05;4.46;;;3.81;;
71172;SDS011;58875;51.996;4.504;2022-11-24T04:11:31;3.43;;;2.95;;
71172;SDS011;58875;51.996;4.504;2022-11-24T04:14:15;2.80;;;2.40;;
71172;SDS011;58875;51.996;4.504;2022-11-24T04:16:42;2.92;;;2.48;;
71172;SDS011;58875;51.996;4.504;2022-11-24T04:19:08;2.72;;;2.32;;
71172;SDS011;58875;51.996;4.504;2022-11-24T04:21:33;2.24;;;1.92;;
71172;SDS011;58875;51.996;4.504;2022-11-24T04:23:59;2.11;;;1.78;;
71172;SDS011;58875;51.996;4.504;2022-11-24T04:26:24;2.21;;;1.84;;
71172;SDS011;58875;51.996;4.504;2022-11-24T04:28:50;1.77;;;1.47;;
71172;SDS011;58875;51.996;4.504;2022-11-24T04:31:15;1.76;;;1.43;;
71172;SDS011;58875;51.996;4.504;2022-11-24T04:33:42;1.87;;;1.47;;
71172;SDS011;58875;51.996;4.504;2022-11-24T04:36:08;2.18;;;1.67;;
71172;SDS011;58875;51.996;4.504;2022-11-24T04:38:33;2.62;;;2.01;;
71172;SDS011;58875;51.996;4.504;2022-11-24T04:41:02;2.41;;;1.88;;
71172;SDS011;58875;51.996;4.504;2022-11-24T04:43:28;2.34;;;1.85;;
71172;SDS011;58875;51.996;4.504;2022-11-24T04:45:54;1.92;;;1.54;;
71172;SDS011;58875;51.996;4.504;2022-11-24T04:48:20;2.27;;;1.85;;
71172;SDS011;58875;51.996;4.504;2022-11-24T04:50:46;1.94;;;1.60;;
71172;SDS011;58875;51.996;4.504;2022-11-24T04:53:12;2.16;;;1.78;;
71172;SDS011;58875;51.996;4.504;2022-11-24T04:55:38;1.78;;;1.47;;
71172;SDS011;58875;51.996;4.504;2022-11-24T04:58:08;1.69;;;1.40;;
71172;SDS011;58875;51.996;4.504;2022-11-24T05:00:34;1.65;;;1.35;;
71172;SDS011;58875;51.996;4.504;2022-11-24T05:03:00;1.62;;;1.32;;
71172;SDS011;58875;51.996;4.504;2022-11-24T05:05:26;1.71;;;1.40;;
71172;SDS011;58875;51.996;4.504;2022-11-24T05:07:51;1.64;;;1.38;;
71172;SDS011;58875;51.996;4.504;2022-11-24T05:10:17;1.50;;;1.25;;
71172;SDS011;58875;51.996;4.504;2022-11-24T05:13:10;1.10;;;0.91;;
71172;SDS011;58875;51.996;4.504;2022-11-24T05:15:37;1.20;;;0.97;;
71172;SDS011;58875;51.996;4.504;2022-11-24T05:18:05;1.29;;;1.04;;
71172;SDS011;58875;51.996;4.504;2022-11-24T05:20:33;1.19;;;0.95;;
71172;SDS011;58875;51.996;4.504;2022-11-24T05:23:00;1.12;;;0.89;;
71172;SDS011;58875;51.996;4.504;2022-11-24T05:25:29;1.41;;;1.12;;
71172;SDS011;58875;51.996;4.504;2022-11-24T05:27:59;1.85;;;1.48;;
71172;SDS011;58875;51.996;4.504;2022-11-24T05:30:25;1.78;;;1.43;;
71172;SDS011;58875;51.996;4.504;2022-11-24T05:32:51;1.88;;;1.52;;
71172;SDS011;58875;51.996;4.504;2022-11-24T05:35:17;1.96;;;1.59;;
71172;SDS011;58875;51.996;4.504;2022-11-24T05:37:43;2.04;;;1.68;;
71172;SDS011;58875;51.996;4.504;2022-11-24T05:40:08;2.15;;;1.80;;
71172;SDS011;58875;51.996;4.504;2022-11-24T05:42:34;1.97;;;1.65;;
71172;SDS011;58875;51.996;4.504;2022-11-24T05:45:07;2.10;;;1.82;;
71172;SDS011;58875;51.996;4.504;2022-11-24T05:47:35;2.17;;;1.90;;
71172;SDS011;58875;51.996;4.504;2022-11-24T05:50:02;2.12;;;1.85;;
71172;SDS011;58875;51.996;4.504;2022-11-24T05:52:28;2.37;;;2.10;;
71172;SDS011;58875;51.996;4.504;2022-11-24T05:54:53;2.45;;;2.21;;
71172;SDS011;58875;51.996;4.504;2022-11-24T05:57:19;2.78;;;2.59;;
71172;SDS011;58875;51.996;4.504;2022-11-24T05:59:44;2.48;;;2.37;;
71172;SDS011;58875;51.996;4.504;2022-11-24T06:02:10;2.94;;;2.90;;
71172;SDS011;58875;51.996;4.504;2022-11-24T06:04:35;3.16;;;3.16;;
71172;SDS011;58875;51.996;4.504;2022-11-24T06:07:02;3.58;;;3.54;;
71172;SDS011;58875;51.996;4.504;2022-11-24T06:09:28;3.43;;;3.42;;
71172;SDS011;58875;51.996;4.504;2022-11-24T06:11:54;3.75;;;3.75;;
71172;SDS011;58875;51.996;4.504;2022-11-24T06:14:22;3.93;;;3.92;;
71172;SDS011;58875;51.996;4.504;2022-11-24T06:16:48;3.89;;;3.89;;
71172;SDS011;58875;51.996;4.504;2022-11-24T06:19:13;4.03;;;4.01;;
71172;SDS011;58875;51.996;4.504;2022-11-24T06:21:39;3.89;;;3.88;;
71172;SDS011;58875;51.996;4.504;2022-11-24T06:24:05;3.90;;;3.90;;
71172;SDS011;58875;51.996;4.504;2022-11-24T06:26:30;4.05;;;4.04;;
71172;SDS011;58875;51.996;4.504;2022-11-24T06:28:56;3.95;;;3.94;;
71172;SDS011;58875;51.996;4.504;2022-11-24T06:31:22;3.80;;;3.78;;
71172;SDS011;58875;51.996;4.504;2022-11-24T06:33:47;3.47;;;3.45;;
71172;SDS011;58875;51.996;4.504;2022-11-24T06:36:13;3.72;;;3.71;;
71172;SDS011;58875;51.996;4.504;2022-11-24T06:38:39;3.54;;;3.51;;
71172;SDS011;58875;51.996;4.504;2022-11-24T06:41:14;3.71;;;3.68;;
71172;SDS011;58875;51.996;4.504;2022-11-24T06:43:41;3.92;;;3.89;;
71172;SDS011;58875;51.996;4.504;2022-11-24T06:46:06;3.64;;;3.61;;
71172;SDS011;58875;51.996;4.504;2022-11-24T06:48:32;3.79;;;3.75;;
71172;SDS011;58875;51.996;4.504;2022-11-24T06:51:01;3.71;;;3.68;;
71172;SDS011;58875;51.996;4.504;2022-11-24T06:53:31;3.98;;;3.94;;
71172;SDS011;58875;51.996;4.504;2022-11-24T06:56:02;4.07;;;4.02;;
71172;SDS011;58875;51.996;4.504;2022-11-24T06:58:30;4.01;;;3.95;;
71172;SDS011;58875;51.996;4.504;2022-11-24T07:00:55;4.02;;;3.98;;
71172;SDS011;58875;51.996;4.504;2022-11-24T07:03:21;4.40;;;4.35;;
71172;SDS011;58875;51.996;4.504;2022-11-24T07:05:46;4.37;;;4.31;;
71172;SDS011;58875;51.996;4.504;2022-11-24T07:08:12;4.26;;;4.20;;
71172;SDS011;58875;51.996;4.504;2022-11-24T07:10:38;4.57;;;4.51;;
71172;SDS011;58875;51.996;4.504;2022-11-24T07:13:07;4.23;;;4.18;;
71172;SDS011;58875;51.996;4.504;2022-11-24T07:15:33;4.49;;;4.42;;
71172;SDS011;58875;51.996;4.504;2022-11-24T07:17:59;4.34;;;4.26;;
71172;SDS011;58875;51.996;4.504;2022-11-24T07:20:25;4.46;;;4.39;;
71172;SDS011;58875;51.996;4.504;2022-11-24T07:22:54;4.19;;;4.10;;
71172;SDS011;58875;51.996;4.504;2022-11-24T07:25:25;4.54;;;4.46;;
71172;SDS011;58875;51.996;4.504;2022-11-24T07:27:59;4.10;;;4.02;;
71172;SDS011;58875;51.996;4.504;2022-11-24T07:30:25;4.30;;;4.25;;
71172;SDS011;58875;51.996;4.504;2022-11-24T07:32:58;3.94;;;3.90;;
71172;SDS011;58875;51.996;4.504;2022-11-24T07:35:27;4.01;;;3.98;;
71172;SDS011;58875;51.996;4.504;2022-11-24T07:37:56;4.34;;;4.26;;
71172;SDS011;58875;51.996;4.504;2022-11-24T07:40:23;4.14;;;4.01;;
71172;SDS011;58875;51.996;4.504;2022-11-24T07:42:50;3.96;;;3.78;;
71172;SDS011;58875;51.996;4.504;2022-11-24T07:45:15;3.74;;;3.64;;
71172;SDS011;58875;51.996;4.504;2022-11-24T07:47:41;3.64;;;3.55;;
71172;SDS011;58875;51.996;4.504;2022-11-24T07:50:07;3.76;;;3.62;;
71172;SDS011;58875;51.996;4.504;2022-11-24T07:52:34;3.81;;;3.62;;
71172;SDS011;58875;51.996;4.504;2022-11-24T07:55:00;4.01;;;3.75;;
71172;SDS011;58875;51.996;4.504;2022-11-24T07:57:26;3.97;;;3.68;;
71172;SDS011;58875;51.996;4.504;2022-11-24T07:59:54;3.93;;;3.62;;
71172;SDS011;58875;51.996;4.504;2022-11-24T08:02:20;3.99;;;3.72;;
71172;SDS011;58875;51.996;4.504;2022-11-24T08:04:45;4.51;;;4.16;;
71172;SDS011;58875;51.996;4.504;2022-11-24T08:07:11;4.51;;;4.04;;
71172;SDS011;58875;51.996;4.504;2022-11-24T08:09:37;4.36;;;3.91;;
71172;SDS011;58875;51.996;4.504;2022-11-24T08:12:02;4.00;;;3.61;;
71172;SDS011;58875;51.996;4.504;2022-11-24T08:14:28;4.30;;;3.78;;
71172;SDS011;58875;51.996;4.504;2022-11-24T08:16:53;4.48;;;3.86;;
71172;SDS011;58875;51.996;4.504;2022-11-24T08:19:20;4.19;;;3.50;;
71172;SDS011;58875;51.996;4.504;2022-11-24T08:21:46;4.52;;;3.73;;
71172;SDS011;58875;51.996;4.504;2022-11-24T08:24:11;4.41;;;3.56;;
71172;SDS011;58875;51.996;4.504;2022-11-24T08:26:39;4.58;;;3.76;;
71172;SDS011;58875;51.996;4.504;2022-11-24T08:29:06;4.78;;;3.93;;
71172;SDS011;58875;51.996;4.504;2022-11-24T08:31:31;5.11;;;4.09;;
71172;SDS011;58875;51.996;4.504;2022-11-24T08:34:00;5.22;;;4.08;;
71172;SDS011;58875;51.996;4.504;2022-11-24T08:36:27;5.50;;;4.26;;
71172;SDS011;58875;51.996;4.504;2022-11-24T08:38:56;5.57;;;4.20;;
71172;SDS011;58875;51.996;4.504;2022-11-24T08:41:23;6.28;;;4.69;;
71172;SDS011;58875;51.996;4.504;2022-11-24T08:43:50;5.30;;;4.01;;
71172;SDS011;58875;51.996;4.504;2022-11-24T08:46:16;5.97;;;4.48;;
71172;SDS011;58875;51.996;4.504;2022-11-24T08:48:47;5.98;;;4.51;;
71172;SDS011;58875;51.996;4.504;2022-11-24T08:51:15;6.29;;;4.67;;
71172;SDS011;58875;51.996;4.504;2022-11-24T08:53:42;5.62;;;4.23;;
71172;SDS011;58875;51.996;4.504;2022-11-24T08:56:08;5.61;;;4.23;;
71172;SDS011;58875;51.996;4.504;2022-11-24T08:58:36;6.29;;;4.74;;
71172;SDS011;58875;51.996;4.504;2022-11-24T09:01:06;6.58;;;4.79;;
71172;SDS011;58875;51.996;4.504;2022-11-24T09:03:33;6.50;;;4.73;;
71172;SDS011;58875;51.996;4.504;2022-11-24T09:06:00;6.51;;;4.79;;
71172;SDS011;58875;51.996;4.504;2022-11-24T09:08:28;5.84;;;4.29;;
71172;SDS011;58875;51.996;4.504;2022-11-24T09:10:57;5.99;;;4.38;;
71172;SDS011;58875;51.996;4.504;2022-11-24T09:13:27;6.06;;;4.41;;
71172;SDS011;58875;51.996;4.504;2022-11-24T09:15:52;6.15;;;4.38;;
71172;SDS011;58875;51.996;4.504;2022-11-24T09:18:18;7.00;;;4.92;;
71172;SDS011;58875;51.996;4.504;2022-11-24T09:20:43;6.80;;;4.75;;
71172;SDS011;58875;51.996;4.504;2022-11-24T09:23:09;6.69;;;4.65;;
71172;SDS011;58875;51.996;4.504;2022-11-24T09:25:35;6.46;;;4.37;;
71172;SDS011;58875;51.996;4.504;2022-11-24T09:28:01;6.99;;;4.74;;
71172;SDS011;58875;51.996;4.504;2022-11-24T09:30:27;6.38;;;4.32;;
71172;SDS011;58875;51.996;4.504;2022-11-24T09:32:56;7.60;;;5.14;;
71172;SDS011;58875;51.996;4.504;2022-11-24T09:35:22;7.23;;;4.90;;
71172;SDS011;58875;51.996;4.504;2022-11-24T09:37:48;6.51;;;4.53;;
71172;SDS011;58875;51.996;4.504;2022-11-24T09:40:15;6.76;;;4.65;;
71172;SDS011;58875;51.996;4.504;2022-11-24T09:42:43;7.39;;;5.04;;
71172;SDS011;58875;51.996;4.504;2022-11-24T09:48:09;7.09;;;4.86;;
71172;SDS011;58875;51.996;4.504;2022-11-24T09:50:45;6.48;;;4.46;;
71172;SDS011;58875;51.996;4.504;2022-11-24T09:53:17;6.48;;;4.49;;
71172;SDS011;58875;51.996;4.504;2022-11-24T09:56:27;7.03;;;4.80;;
71172;SDS011;58875;51.996;4.504;2022-11-24T09:58:50;8.09;;;5.53;;
71172;SDS011;58875;51.996;4.504;2022-11-24T10:01:25;7.70;;;5.31;;
71172;SDS011;58875;51.996;4.504;2022-11-24T10:03:57;7.63;;;5.27;;
71172;SDS011;58875;51.996;4.504;2022-11-24T10:06:25;8.89;;;5.97;;
71172;SDS011;58875;51.996;4.504;2022-11-24T10:19:44;7.59;;;5.16;;
71172;SDS011;58875;51.996;4.504;2022-11-24T10:25:29;8.80;;;5.87;;
71172;SDS011;58875;51.996;4.504;2022-11-24T10:28:13;9.15;;;6.15;;
71172;SDS011;58875;51.996;4.504;2022-11-24T10:30:40;8.21;;;5.62;;
71172;SDS011;58875;51.996;4.504;2022-11-24T10:33:09;8.27;;;5.67;;
71172;SDS011;58875;51.996;4.504;2022-11-24T10:35:47;8.00;;;5.52;;
71172;SDS011;58875;51.996;4.504;2022-11-24T10:38:28;8.42;;;5.78;;
71172;SDS011;58875;51.996;4.504;2022-11-24T10:41:06;8.87;;;5.97;;
71172;SDS011;58875;51.996;4.504;2022-11-24T10:43:42;8.27;;;5.64;;
71172;SDS011;58875;51.996;4.504;2022-11-24T10:48:41;8.05;;;5.74;;
71172;SDS011;58875;51.996;4.504;2022-11-24T10:51:34;8.56;;;6.11;;
71172;SDS011;58875;51.996;4.504;2022-11-24T10:56:41;8.69;;;6.11;;
71172;SDS011;58875;51.996;4.504;2022-11-24T11:01:49;7.44;;;5.47;;
71172;SDS011;58875;51.996;4.504;2022-11-24T11:04:17;7.56;;;5.67;;
71172;SDS011;58875;51.996;4.504;2022-11-24T11:06:45;7.09;;;5.34;;
71172;SDS011;58875;51.996;4.504;2022-11-24T11:09:21;7.90;;;5.85;;
71172;SDS011;58875;51.996;4.504;2022-11-24T11:11:47;7.44;;;5.57;;
71172;SDS011;58875;51.996;4.504;2022-11-24T11:14:32;7.54;;;5.61;;
71172;SDS011;58875;51.996;4.504;2022-11-24T11:17:01;7.53;;;5.60;;
71172;SDS011;58875;51.996;4.504;2022-11-24T11:19:47;7.13;;;5.32;;
71172;SDS011;58875;51.996;4.504;2022-11-24T11:24:59;7.52;;;5.53;;
71172;SDS011;58875;51.996;4.504;2022-11-24T11:27:36;7.19;;;5.34;;
71172;SDS011;58875;51.996;4.504;2022-11-24T11:30:23;7.07;;;5.29;;
71172;SDS011;58875;51.996;4.504;2022-11-24T11:32:56;7.97;;;5.78;;
71172;SDS011;58875;51.996;4.504;2022-11-24T11:35:24;7.62;;;5.53;;
71172;SDS011;58875;51.996;4.504;2022-11-24T11:37:57;8.00;;;5.87;;
71172;SDS011;58875;51.996;4.504;2022-11-24T11:40:27;7.79;;;5.74;;
71172;SDS011;58875;51.996;4.504;2022-11-24T11:43:05;6.53;;;4.95;;
71172;SDS011;58875;51.996;4.504;2022-11-24T11:45:42;7.31;;;5.47;;
71172;SDS011;58875;51.996;4.504;2022-11-24T11:48:18;7.05;;;5.31;;
71172;SDS011;58875;51.996;4.504;2022-11-24T11:53:39;6.88;;;5.06;;
71172;SDS011;58875;51.996;4.504;2022-11-24T11:56:24;7.14;;;5.29;;
71172;SDS011;58875;51.996;4.504;2022-11-24T12:02:28;6.80;;;5.00;;
71172;SDS011;58875;51.996;4.504;2022-11-24T12:07:41;8.50;;;6.07;;
71172;SDS011;58875;51.996;4.504;2022-11-24T12:13:30;8.18;;;5.82;;
71172;SDS011;58875;51.996;4.504;2022-11-24T12:21:50;8.35;;;5.86;;
71172;SDS011;58875;51.996;4.504;2022-11-24T12:24:32;7.76;;;5.49;;
71172;SDS011;58875;51.996;4.504;2022-11-24T12:29:58;7.63;;;5.67;;
71172;SDS011;58875;51.996;4.504;2022-11-24T12:37:57;7.55;;;5.69;;
71172;SDS011;58875;51.996;4.504;2022-11-24T12:40:37;7.72;;;5.85;;
71172;SDS011;58875;51.996;4.504;2022-11-24T12:49:05;6.61;;;5.04;;
71172;SDS011;58875;51.996;4.504;2022-11-24T12:51:47;7.41;;;5.65;;
71172;SDS011;58875;51.996;4.504;2022-11-24T12:54:28;8.60;;;6.44;;
71172;SDS011;58875;51.996;4.504;2022-11-24T13:07:48;7.20;;;5.67;;
71172;SDS011;58875;51.996;4.504;2022-11-24T13:12:52;6.71;;;5.29;;
71172;SDS011;58875;51.996;4.504;2022-11-24T13:15:17;7.10;;;5.61;;
71172;SDS011;58875;51.996;4.504;2022-11-24T13:17:43;6.99;;;5.63;;
71172;SDS011;58875;51.996;4.504;2022-11-24T13:20:19;7.63;;;6.00;;
71172;SDS011;58875;51.996;4.504;2022-11-24T13:22:53;7.94;;;6.22;;
71172;SDS011;58875;51.996;4.504;2022-11-24T13:25:26;7.41;;;5.97;;
71172;SDS011;58875;51.996;4.504;2022-11-24T13:27:59;7.32;;;5.98;;
71172;SDS011;58875;51.996;4.504;2022-11-24T13:35:40;6.57;;;5.37;;
71172;SDS011;58875;51.996;4.504;2022-11-24T13:41:02;7.41;;;5.94;;
71172;SDS011;58875;51.996;4.504;2022-11-24T13:43:28;6.87;;;5.51;;
71172;SDS011;58875;51.996;4.504;2022-11-24T13:45:54;7.45;;;5.94;;
71172;SDS011;58875;51.996;4.504;2022-11-24T13:53:14;6.31;;;5.10;;
71172;SDS011;58875;51.996;4.504;2022-11-24T13:58:51;6.27;;;5.00;;
71172;SDS011;58875;51.996;4.504;2022-11-24T14:01:27;6.04;;;4.76;;
71172;SDS011;58875;51.996;4.504;2022-11-24T14:04:01;7.32;;;5.54;;
71172;SDS011;58875;51.996;4.504;2022-11-24T14:06:41;7.07;;;5.37;;
71172;SDS011;58875;51.996;4.504;2022-11-24T14:09:32;6.67;;;4.94;;
71172;SDS011;58875;51.996;4.504;2022-11-24T14:12:15;7.35;;;5.43;;
71172;SDS011;58875;51.996;4.504;2022-11-24T14:14:44;6.39;;;4.85;;
71172;SDS011;58875;51.996;4.504;2022-11-24T14:19:37;6.45;;;4.84;;
71172;SDS011;58875;51.996;4.504;2022-11-24T14:22:03;6.83;;;4.98;;
71172;SDS011;58875;51.996;4.504;2022-11-24T14:24:32;7.32;;;5.26;;
71172;SDS011;58875;51.996;4.504;2022-11-24T14:26:58;6.89;;;4.97;;
71172;SDS011;58875;51.996;4.504;2022-11-24T14:29:28;7.08;;;5.12;;
71172;SDS011;58875;51.996;4.504;2022-11-24T14:31:58;6.95;;;5.04;;
71172;SDS011;58875;51.996;4.504;2022-11-24T14:34:26;6.98;;;5.04;;
71172;SDS011;58875;51.996;4.504;2022-11-24T14:36:57;7.77;;;5.57;;
71172;SDS011;58875;51.996;4.504;2022-11-24T14:39:25;7.80;;;5.59;;
71172;SDS011;58875;51.996;4.504;2022-11-24T14:41:54;7.03;;;5.12;;
71172;SDS011;58875;51.996;4.504;2022-11-24T14:44:34;7.20;;;5.25;;
71172;SDS011;58875;51.996;4.504;2022-11-24T14:47:14;7.91;;;5.78;;
71172;SDS011;58875;51.996;4.504;2022-11-24T14:49:49;7.19;;;5.33;;
71172;SDS011;58875;51.996;4.504;2022-11-24T14:52:18;7.26;;;5.40;;
71172;SDS011;58875;51.996;4.504;2022-11-24T14:54:48;6.93;;;5.07;;
71172;SDS011;58875;51.996;4.504;2022-11-24T15:08:23;7.95;;;5.72;;
71172;SDS011;58875;51.996;4.504;2022-11-24T15:10:58;7.88;;;5.71;;
71172;SDS011;58875;51.996;4.504;2022-11-24T15:13:26;7.27;;;5.43;;
71172;SDS011;58875;51.996;4.504;2022-11-24T15:15:56;7.90;;;5.82;;
71172;SDS011;58875;51.996;4.504;2022-11-24T15:21:16;7.63;;;5.67;;
71172;SDS011;58875;51.996;4.504;2022-11-24T15:24:15;6.98;;;5.32;;
71172;SDS011;58875;51.996;4.504;2022-11-24T15:26:45;6.44;;;4.83;;
71172;SDS011;58875;51.996;4.504;2022-11-24T15:29:11;7.31;;;5.53;;
71172;SDS011;58875;51.996;4.504;2022-11-24T15:31:40;7.08;;;5.27;;
71172;SDS011;58875;51.996;4.504;2022-11-24T15:34:08;7.18;;;5.48;;
71172;SDS011;58875;51.996;4.504;2022-11-24T15:36:38;6.98;;;5.51;;
71172;SDS011;58875;51.996;4.504;2022-11-24T15:39:03;7.83;;;6.34;;
71172;SDS011;58875;51.996;4.504;2022-11-24T15:41:30;8.86;;;7.52;;
71172;SDS011;58875;51.996;4.504;2022-11-24T15:43:57;7.15;;;6.03;;
71172;SDS011;58875;51.996;4.504;2022-11-24T15:46:27;7.07;;;5.86;;
71172;SDS011;58875;51.996;4.504;2022-11-24T15:48:53;7.88;;;6.53;;
71172;SDS011;58875;51.996;4.504;2022-11-24T15:53:48;8.04;;;6.89;;
71172;SDS011;58875;51.996;4.504;2022-11-24T15:56:20;6.67;;;6.07;;
71172;SDS011;58875;51.996;4.504;2022-11-24T15:58:50;6.05;;;5.28;;
71172;SDS011;58875;51.996;4.504;2022-11-24T16:01:16;6.40;;;5.34;;
71172;SDS011;58875;51.996;4.504;2022-11-24T16:03:43;5.65;;;4.67;;
71172;SDS011;58875;51.996;4.504;2022-11-24T16:06:13;5.99;;;4.84;;
71172;SDS011;58875;51.996;4.504;2022-11-24T16:08:43;6.52;;;5.28;;
71172;SDS011;58875;51.996;4.504;2022-11-24T16:11:09;6.08;;;4.81;;
71172;SDS011;58875;51.996;4.504;2022-11-24T16:13:34;7.95;;;6.03;;
71172;SDS011;58875;51.996;4.504;2022-11-24T16:16:00;7.10;;;5.46;;
71172;SDS011;58875;51.996;4.504;2022-11-24T16:18:25;7.37;;;5.60;;
71172;SDS011;58875;51.996;4.504;2022-11-24T16:20:51;7.26;;;5.48;;
71172;SDS011;58875;51.996;4.504;2022-11-24T16:23:16;7.48;;;5.74;;
71172;SDS011;58875;51.996;4.504;2022-11-24T16:25:43;7.30;;;5.56;;
71172;SDS011;58875;51.996;4.504;2022-11-24T16:28:08;7.45;;;5.77;;
71172;SDS011;58875;51.996;4.504;2022-11-24T16:30:36;7.05;;;5.54;;
71172;SDS011;58875;51.996;4.504;2022-11-24T16:33:02;6.81;;;5.37;;
71172;SDS011;58875;51.996;4.504;2022-11-24T16:35:29;6.67;;;5.19;;
71172;SDS011;58875;51.996;4.504;2022-11-24T16:37:55;6.41;;;5.01;;
71172;SDS011;58875;51.996;4.504;2022-11-24T16:40:20;6.22;;;4.81;;
71172;SDS011;58875;51.996;4.504;2022-11-24T16:42:49;6.97;;;5.39;;
71172;SDS011;58875;51.996;4.504;2022-11-24T16:45:17;7.06;;;5.40;;
71172;SDS011;58875;51.996;4.504;2022-11-24T16:47:42;7.41;;;5.68;;
71172;SDS011;58875;51.996;4.504;2022-11-24T16:50:08;8.16;;;6.27;;
71172;SDS011;58875;51.996;4.504;2022-11-24T16:52:36;7.29;;;5.73;;
71172;SDS011;58875;51.996;4.504;2022-11-24T16:55:03;7.24;;;5.61;;